createdAt,value
2023-02-28T00:01:40.788Z,8.20
2023-02-28T00:08:15.649Z,9.30
2023-02-28T00:10:45.810Z,9.30
2023-02-28T00:13:19.805Z,9.70
2023-02-28T00:15:48.038Z,8.20
2023-02-28T00:18:16.112Z,8.40
2023-02-28T00:20:47.314Z,8.00
2023-02-28T00:23:15.565Z,10.10
2023-02-28T00:25:43.662Z,7.10
2023-02-28T00:28:12.076Z,6.60
2023-02-28T00:30:40.204Z,7.70
2023-02-28T00:33:08.691Z,8.30
2023-02-28T00:35:36.912Z,9.00
2023-02-28T00:38:05.146Z,6.90
2023-02-28T00:40:33.362Z,11.10
2023-02-28T00:43:02.511Z,7.50
2023-02-28T00:45:31.354Z,11.10
2023-02-28T00:47:59.530Z,10.70
2023-02-28T00:50:27.912Z,9.20
2023-02-28T00:52:57.024Z,8.00
2023-02-28T00:55:25.559Z,8.30
2023-02-28T00:57:53.716Z,6.50
2023-02-28T01:00:22.028Z,8.30
2023-02-28T01:02:52.138Z,7.30
2023-02-28T01:05:20.738Z,7.70
2023-02-28T01:07:49.364Z,7.70
2023-02-28T01:10:17.695Z,7.10
2023-02-28T01:12:46.417Z,8.70
2023-02-28T01:15:17.645Z,8.30
2023-02-28T01:20:18.888Z,6.70
2023-02-28T01:22:47.668Z,8.00
2023-02-28T01:25:17.189Z,6.50
2023-02-28T01:27:46.566Z,7.80
2023-02-28T01:30:16.488Z,8.00
2023-02-28T01:32:45.593Z,7.70
2023-02-28T01:35:13.759Z,12.00
2023-02-28T01:37:42.971Z,7.30
2023-02-28T01:40:11.915Z,8.70
2023-02-28T01:42:40.273Z,8.80
2023-02-28T01:45:27.677Z,9.00
2023-02-28T01:47:58.920Z,8.80
2023-02-28T01:50:29.093Z,5.70
2023-02-28T01:52:58.302Z,8.10
2023-02-28T01:55:29.830Z,10.80
2023-02-28T01:58:03.209Z,7.80
2023-02-28T02:00:31.919Z,8.00
2023-02-28T02:03:02.459Z,8.90
2023-02-28T02:05:35.520Z,8.20
2023-02-28T02:08:07.164Z,6.60
2023-02-28T02:10:37.593Z,8.50
2023-02-28T02:13:23.307Z,9.70
2023-02-28T02:16:20.801Z,7.70
2023-02-28T02:18:59.030Z,8.50
2023-02-28T02:21:39.267Z,7.10
2023-02-28T02:24:29.009Z,9.50
2023-02-28T02:27:21.008Z,10.30
2023-02-28T02:30:18.578Z,9.30
2023-02-28T02:33:05.842Z,8.30
2023-02-28T02:35:36.612Z,9.80
2023-02-28T02:38:30.516Z,9.40
2023-02-28T02:41:04.712Z,10.20
2023-02-28T02:43:39.234Z,8.90
2023-02-28T02:46:13.687Z,10.00
2023-02-28T02:48:41.923Z,10.90
2023-02-28T02:51:18.903Z,10.00
2023-02-28T02:53:50.496Z,8.80
2023-02-28T02:56:20.230Z,8.90
2023-02-28T02:58:48.654Z,10.30
2023-02-28T03:01:28.999Z,9.10
2023-02-28T03:03:58.091Z,10.60
2023-02-28T03:06:27.057Z,9.10
2023-02-28T03:08:55.276Z,9.40
2023-02-28T03:11:24.439Z,10.00
2023-02-28T03:14:35.668Z,7.70
2023-02-28T03:17:03.749Z,9.40
2023-02-28T03:19:43.637Z,10.80
2023-02-28T03:22:35.203Z,10.50
2023-02-28T03:25:08.723Z,10.30
2023-02-28T03:27:59.539Z,11.00
2023-02-28T03:30:47.139Z,10.80
2023-02-28T03:33:25.538Z,8.90
2023-02-28T03:36:02.752Z,9.20
2023-02-28T03:38:33.199Z,10.60
2023-02-28T03:41:18.829Z,10.70
2023-02-28T03:43:51.977Z,11.20
2023-02-28T03:46:22.298Z,10.90
2023-02-28T03:48:53.738Z,11.80
2023-02-28T03:51:22.519Z,11.70
2023-02-28T03:53:55.703Z,14.00
2023-02-28T03:56:27.357Z,11.60
2023-02-28T04:01:36.770Z,11.70
2023-02-28T04:04:05.348Z,11.00
2023-02-28T04:06:35.393Z,10.00
2023-02-28T04:09:04.972Z,11.70
2023-02-28T04:11:53.492Z,11.10
2023-02-28T04:14:21.709Z,11.20
2023-02-28T04:16:49.882Z,9.00
2023-02-28T04:19:18.023Z,7.50
2023-02-28T04:21:47.999Z,9.40
2023-02-28T04:24:21.562Z,8.50
2023-02-28T04:26:54.255Z,10.20
2023-02-28T04:29:26.260Z,8.40
2023-02-28T04:31:55.091Z,10.20
2023-02-28T04:34:24.619Z,9.70
2023-02-28T04:37:10.378Z,9.30
2023-02-28T04:39:41.333Z,10.70
2023-02-28T04:42:09.874Z,11.10
2023-02-28T04:44:37.959Z,9.00
2023-02-28T04:47:06.386Z,9.50
2023-02-28T04:49:34.749Z,8.60
2023-02-28T04:52:03.130Z,10.10
2023-02-28T04:54:31.902Z,11.20
2023-02-28T04:57:00.103Z,10.70
2023-02-28T04:59:34.916Z,11.90
2023-02-28T05:02:08.129Z,11.50
2023-02-28T05:04:37.063Z,9.80
2023-02-28T05:07:05.742Z,10.10
2023-02-28T05:09:36.971Z,9.30
2023-02-28T05:12:07.790Z,12.60
2023-02-28T05:14:38.202Z,9.90
2023-02-28T05:17:06.477Z,12.00
2023-02-28T05:19:34.633Z,10.70
2023-02-28T05:22:03.713Z,10.80
2023-02-28T05:24:41.108Z,10.00
2023-02-28T05:27:09.894Z,12.60
2023-02-28T05:29:42.739Z,11.90
2023-02-28T05:32:12.339Z,11.30
2023-02-28T05:34:40.809Z,14.10
2023-02-28T05:37:15.479Z,14.10
2023-02-28T05:39:43.901Z,13.80
2023-02-28T05:42:14.589Z,16.30
2023-02-28T05:44:43.207Z,14.40
2023-02-28T05:47:11.916Z,12.70
2023-02-28T05:49:40.390Z,14.30
2023-02-28T05:52:08.722Z,14.10
2023-02-28T05:54:37.979Z,14.00
2023-02-28T05:57:15.487Z,14.30
2023-02-28T05:59:50.956Z,14.90
2023-02-28T06:02:19.295Z,14.60
2023-02-28T06:04:48.366Z,10.50
2023-02-28T06:07:18.578Z,11.50
2023-02-28T06:09:47.558Z,12.10
2023-02-28T06:12:16.528Z,14.00
2023-02-28T06:14:45.150Z,13.80
2023-02-28T06:17:17.956Z,14.80
2023-02-28T06:19:46.224Z,12.60
2023-02-28T06:22:14.759Z,12.80
2023-02-28T06:24:43.038Z,14.50
2023-02-28T06:27:11.431Z,11.40
2023-02-28T06:29:42.677Z,10.80
2023-02-28T06:32:11.055Z,12.60
2023-02-28T06:34:40.450Z,10.20
2023-02-28T06:37:08.672Z,10.00
2023-02-28T06:39:40.329Z,12.90
2023-02-28T06:42:09.083Z,11.50
2023-02-28T06:44:37.277Z,9.90
2023-02-28T06:47:06.304Z,11.70
2023-02-28T06:49:38.501Z,12.90
2023-02-28T06:52:08.137Z,13.10
2023-02-28T06:54:37.683Z,11.30
2023-02-28T06:57:05.966Z,11.50
2023-02-28T06:59:34.271Z,14.00
2023-02-28T07:02:04.157Z,12.50
2023-02-28T07:04:32.837Z,12.30
2023-02-28T07:07:01.321Z,12.90
2023-02-28T07:09:30.799Z,11.60
2023-02-28T07:11:58.956Z,11.80
2023-02-28T07:14:27.285Z,11.40
2023-02-28T07:16:55.749Z,14.40
2023-02-28T07:19:24.003Z,12.60
2023-02-28T07:21:52.168Z,10.80
2023-02-28T07:24:20.350Z,12.90
2023-02-28T07:26:48.787Z,13.50
2023-02-28T07:29:17.288Z,13.20
2023-02-28T07:31:48.335Z,11.00
2023-02-28T07:34:16.784Z,11.80
2023-02-28T07:36:44.912Z,9.20
2023-02-28T07:39:13.232Z,11.80
2023-02-28T07:41:44.685Z,12.00
2023-02-28T07:44:13.166Z,8.40
2023-02-28T07:46:41.543Z,9.00
2023-02-28T07:49:10.895Z,7.70
2023-02-28T07:51:39.714Z,11.70
2023-02-28T07:54:08.858Z,9.30
2023-02-28T07:56:38.255Z,11.20
2023-02-28T07:59:10.387Z,9.80
2023-02-28T08:01:43.400Z,10.60
2023-02-28T08:04:12.256Z,11.70
2023-02-28T08:06:40.852Z,10.10
2023-02-28T08:09:17.021Z,8.90
2023-02-28T08:11:47.614Z,10.90
2023-02-28T08:14:16.933Z,8.60
2023-02-28T08:16:47.553Z,8.50
2023-02-28T08:19:16.018Z,11.80
2023-02-28T08:21:44.391Z,9.80
2023-02-28T08:24:12.586Z,9.80
2023-02-28T08:26:40.934Z,9.90
2023-02-28T08:29:09.170Z,9.30
2023-02-28T08:31:37.717Z,8.20
2023-02-28T08:34:07.695Z,11.20
2023-02-28T08:36:36.183Z,10.40
2023-02-28T08:39:04.594Z,9.20
2023-02-28T08:41:34.390Z,11.00
2023-02-28T08:44:02.816Z,11.30
2023-02-28T08:46:31.276Z,9.70
2023-02-28T08:49:03.016Z,10.70
2023-02-28T08:51:31.866Z,9.10
2023-02-28T08:54:01.075Z,10.50
2023-02-28T08:56:34.425Z,11.50
2023-02-28T08:59:02.655Z,9.80
2023-02-28T09:01:31.362Z,8.40
2023-02-28T09:04:00.732Z,9.40
2023-02-28T09:06:29.941Z,9.60
2023-02-28T09:09:02.786Z,12.40
2023-02-28T09:11:31.196Z,12.70
2023-02-28T09:14:06.616Z,10.70
2023-02-28T09:16:36.250Z,11.10
2023-02-28T09:19:04.715Z,14.10
2023-02-28T09:21:35.095Z,14.10
2023-02-28T09:24:03.638Z,11.50
2023-02-28T09:26:38.847Z,12.60
2023-02-28T09:29:17.911Z,14.60
2023-02-28T09:31:46.420Z,14.00
2023-02-28T09:34:15.005Z,15.50
2023-02-28T09:36:45.570Z,14.40
2023-02-28T09:39:16.755Z,17.50
2023-02-28T09:41:51.544Z,12.20
2023-02-28T09:44:26.166Z,13.20
2023-02-28T09:47:26.950Z,18.30
2023-02-28T09:49:55.877Z,16.60
2023-02-28T09:52:29.680Z,12.50
2023-02-28T09:55:21.308Z,13.10
2023-02-28T09:57:50.311Z,18.00
2023-02-28T10:00:40.455Z,12.30
2023-02-28T10:03:24.256Z,13.40
2023-02-28T10:06:11.249Z,16.10
2023-02-28T10:08:59.498Z,17.50
2023-02-28T10:11:32.719Z,16.70
2023-02-28T10:14:15.553Z,15.80
2023-02-28T10:17:00.742Z,16.30
2023-02-28T10:19:41.351Z,17.00
2023-02-28T10:22:16.528Z,15.50
2023-02-28T10:24:45.513Z,14.90
2023-02-28T10:27:23.241Z,15.20
2023-02-28T10:29:57.215Z,12.60
2023-02-28T10:32:31.682Z,15.50
2023-02-28T10:35:10.423Z,15.00
2023-02-28T10:37:39.913Z,17.80
2023-02-28T10:40:18.912Z,18.30
2023-02-28T10:43:20.930Z,14.50
2023-02-28T10:45:55.552Z,17.00
2023-02-28T10:48:28.110Z,13.80
2023-02-28T10:50:59.067Z,13.70
2023-02-28T10:53:52.681Z,13.40
2023-02-28T10:56:27.202Z,13.20
2023-02-28T10:58:58.738Z,12.00
2023-02-28T11:01:33.663Z,12.30
2023-02-28T11:04:02.767Z,14.20
2023-02-28T11:06:35.684Z,15.10
2023-02-28T11:09:05.621Z,17.00
2023-02-28T11:11:44.510Z,13.10
2023-02-28T11:14:29.220Z,12.50
2023-02-28T11:17:00.614Z,15.40
2023-02-28T11:22:03.947Z,14.10
2023-02-28T11:24:35.376Z,14.30
2023-02-28T11:27:04.197Z,12.70
2023-02-28T11:29:33.757Z,13.70
2023-02-28T11:32:04.656Z,18.90
2023-02-28T11:34:33.449Z,12.10
2023-02-28T11:37:02.359Z,12.30
2023-02-28T11:39:31.391Z,11.30
2023-02-28T11:42:17.820Z,11.20
2023-02-28T11:45:04.705Z,13.90
2023-02-28T11:47:44.508Z,11.60
2023-02-28T11:50:42.525Z,11.10
2023-02-28T11:53:34.924Z,12.20
2023-02-28T11:56:13.765Z,9.90
2023-02-28T11:58:48.029Z,13.50
2023-02-28T12:01:37.608Z,13.80
2023-02-28T12:04:12.874Z,14.00
2023-02-28T12:06:52.918Z,15.50
2023-02-28T12:09:42.545Z,13.60
2023-02-28T12:12:41.575Z,11.80
2023-02-28T12:15:25.992Z,14.30
2023-02-28T12:18:01.667Z,13.30
2023-02-28T12:20:39.569Z,13.30
2023-02-28T12:23:32.493Z,14.10
2023-02-28T12:26:06.583Z,10.40
2023-02-28T12:28:38.142Z,12.90
2023-02-28T12:31:10.932Z,13.20
2023-02-28T12:33:49.533Z,16.00
2023-02-28T12:36:20.465Z,11.80
2023-02-28T12:38:57.577Z,13.20
2023-02-28T12:41:25.686Z,12.50
2023-02-28T12:44:01.704Z,10.80
2023-02-28T12:46:32.143Z,15.00
2023-02-28T12:49:02.475Z,13.20
2023-02-28T12:51:31.664Z,17.00
2023-02-28T12:54:15.576Z,17.90
2023-02-28T12:57:04.989Z,13.80
2023-02-28T12:59:40.697Z,14.00
2023-02-28T13:02:17.537Z,12.90
2023-02-28T13:04:57.656Z,12.50
2023-02-28T13:07:50.743Z,13.50
2023-02-28T13:10:19.918Z,13.50
2023-02-28T13:12:52.783Z,12.40
2023-02-28T13:15:25.242Z,15.70
2023-02-28T13:17:54.961Z,13.20
2023-02-28T13:20:25.958Z,12.40
2023-02-28T13:22:58.289Z,13.00
2023-02-28T13:25:26.639Z,21.00
2023-02-28T13:28:01.940Z,13.70
2023-02-28T13:30:52.991Z,14.40
2023-02-28T13:33:31.277Z,12.60
2023-02-28T13:36:27.101Z,11.50
2023-02-28T13:38:59.094Z,11.70
2023-02-28T13:41:30.752Z,11.80
2023-02-28T13:44:12.789Z,14.00
2023-02-28T13:46:48.592Z,9.00
2023-02-28T13:49:30.179Z,13.30
2023-02-28T13:52:07.400Z,12.40
2023-02-28T13:54:57.506Z,12.90
2023-02-28T13:57:29.120Z,12.40
2023-02-28T14:00:32.808Z,15.00
2023-02-28T14:03:10.586Z,16.70
2023-02-28T14:05:39.914Z,12.80
2023-02-28T14:08:22.746Z,21.20
2023-02-28T14:11:04.160Z,12.50
2023-02-28T14:13:48.484Z,11.90
2023-02-28T14:16:21.380Z,12.60
2023-02-28T14:18:55.994Z,13.90
2023-02-28T14:21:29.910Z,13.50
2023-02-28T14:24:16.989Z,13.40
2023-02-28T14:26:57.404Z,14.40
2023-02-28T14:29:44.029Z,13.70
2023-02-28T14:32:31.236Z,13.90
2023-02-28T14:35:27.527Z,15.20
2023-02-28T14:37:56.220Z,13.80
2023-02-28T14:40:34.387Z,12.70
2023-02-28T14:43:04.506Z,18.40
2023-02-28T14:45:35.679Z,17.90
2023-02-28T14:48:04.281Z,17.20
2023-02-28T14:50:37.084Z,18.30
2023-02-28T14:53:05.785Z,19.00
2023-02-28T14:55:36.452Z,15.50
2023-02-28T14:58:07.872Z,18.40
2023-02-28T15:00:48.192Z,15.20
2023-02-28T15:03:24.749Z,16.50
2023-02-28T15:05:55.208Z,19.30
2023-02-28T15:08:23.653Z,16.30
2023-02-28T15:10:52.931Z,18.80
2023-02-28T15:13:46.438Z,18.00
2023-02-28T15:16:18.585Z,16.60
2023-02-28T15:18:52.052Z,20.40
2023-02-28T15:21:23.643Z,18.90
2023-02-28T15:24:03.321Z,16.00
2023-02-28T15:26:34.150Z,18.50
2023-02-28T15:29:29.459Z,21.70
2023-02-28T15:32:05.851Z,17.90
2023-02-28T15:34:44.271Z,16.50
2023-02-28T15:37:34.451Z,15.90
2023-02-28T15:40:29.884Z,17.70
2023-02-28T15:43:07.213Z,17.40
2023-02-28T15:45:50.871Z,21.10
2023-02-28T15:48:32.512Z,18.10
2023-02-28T15:51:07.025Z,19.00
2023-02-28T15:53:58.193Z,18.30
2023-02-28T15:56:34.325Z,16.40
2023-02-28T15:59:05.106Z,16.80
2023-02-28T16:01:34.988Z,25.10
2023-02-28T16:04:12.678Z,20.60
2023-02-28T16:06:43.430Z,17.40
2023-02-28T16:09:17.322Z,19.20
2023-02-28T16:11:50.728Z,21.40
2023-02-28T16:14:21.164Z,23.90
2023-02-28T16:16:51.001Z,20.30
2023-02-28T16:19:19.926Z,21.70
2023-02-28T16:21:52.426Z,21.90
2023-02-28T16:24:20.767Z,23.10
2023-02-28T16:26:49.698Z,22.10
2023-02-28T16:29:30.081Z,20.00
2023-02-28T16:31:58.552Z,20.20
2023-02-28T16:34:27.496Z,22.70
2023-02-28T16:36:56.802Z,19.40
2023-02-28T16:39:25.092Z,27.70
2023-02-28T16:41:53.461Z,22.50
2023-02-28T16:44:31.631Z,25.80
2023-02-28T16:47:01.332Z,23.30
2023-02-28T16:49:29.654Z,24.30
2023-02-28T16:51:57.900Z,29.90
2023-02-28T16:54:26.462Z,25.10
2023-02-28T16:56:54.904Z,21.40
2023-02-28T16:59:25.220Z,21.80
2023-02-28T17:01:58.928Z,24.80
2023-02-28T17:04:27.759Z,27.10
2023-02-28T17:06:57.567Z,24.30
2023-02-28T17:09:36.719Z,23.30
2023-02-28T17:12:10.472Z,25.70
2023-02-28T17:14:41.629Z,28.40
2023-02-28T17:17:16.105Z,25.10
2023-02-28T17:19:47.446Z,25.00
2023-02-28T17:22:16.432Z,27.10
2023-02-28T17:24:47.170Z,22.80
2023-02-28T17:27:17.179Z,25.90
2023-02-28T17:29:45.765Z,24.50
2023-02-28T17:32:18.709Z,21.70
2023-02-28T17:34:47.502Z,21.30
2023-02-28T17:37:17.448Z,25.60
2023-02-28T17:39:45.730Z,22.00
2023-02-28T17:44:45.379Z,23.10
2023-02-28T17:47:13.968Z,24.30
2023-02-28T17:49:42.851Z,21.90
2023-02-28T17:52:11.818Z,22.50
2023-02-28T17:54:40.889Z,23.50
2023-02-28T17:57:14.103Z,23.60
2023-02-28T17:59:43.231Z,26.70
2023-02-28T18:02:13.719Z,25.10
2023-02-28T18:04:47.774Z,25.00
2023-02-28T18:07:16.811Z,25.80
2023-02-28T18:09:45.009Z,27.50
2023-02-28T18:12:13.524Z,23.20
2023-02-28T18:14:43.572Z,24.20
2023-02-28T18:17:13.362Z,27.50
2023-02-28T18:19:44.365Z,25.40
2023-02-28T18:22:12.454Z,25.70
2023-02-28T18:24:41.179Z,27.80
2023-02-28T18:27:11.225Z,29.40
2023-02-28T18:29:40.882Z,33.70
2023-02-28T18:32:10.365Z,28.10
2023-02-28T18:34:38.755Z,24.80
2023-02-28T18:37:07.376Z,25.30
2023-02-28T18:39:35.540Z,27.80
2023-02-28T18:42:04.615Z,29.20
2023-02-28T18:44:33.228Z,26.90
2023-02-28T18:47:02.667Z,25.00
2023-02-28T18:49:35.772Z,26.00
2023-02-28T18:52:04.397Z,26.70
2023-02-28T18:54:33.736Z,28.40
2023-02-28T18:57:02.028Z,25.00
2023-02-28T18:59:31.673Z,27.70
2023-02-28T19:01:59.887Z,23.90
2023-02-28T19:04:28.308Z,28.30
2023-02-28T19:07:04.549Z,23.30
2023-02-28T19:09:33.684Z,27.80
2023-02-28T19:12:02.022Z,24.20
2023-02-28T19:14:35.772Z,23.30
2023-02-28T19:17:04.104Z,25.10
2023-02-28T19:19:32.446Z,23.80
2023-02-28T19:22:00.975Z,26.30
2023-02-28T19:24:30.006Z,22.30
2023-02-28T19:27:00.218Z,26.30
2023-02-28T19:29:28.714Z,22.20
2023-02-28T19:31:59.096Z,24.90
2023-02-28T19:34:27.496Z,22.90
2023-02-28T19:36:56.236Z,20.20
2023-02-28T19:39:24.466Z,21.90
2023-02-28T19:41:52.670Z,23.90
2023-02-28T19:44:20.840Z,23.10
2023-02-28T19:46:49.144Z,21.00
2023-02-28T19:49:18.705Z,19.10
2023-02-28T19:51:47.414Z,20.20
2023-02-28T19:54:16.304Z,21.60
2023-02-28T19:56:44.853Z,20.50
2023-02-28T19:59:21.514Z,24.40
2023-02-28T20:01:56.911Z,19.30
2023-02-28T20:04:25.930Z,21.40
2023-02-28T20:06:54.249Z,21.80
2023-02-28T20:09:22.561Z,20.00
2023-02-28T20:11:51.203Z,18.20
2023-02-28T20:14:19.496Z,18.90
2023-02-28T20:16:51.922Z,18.00
2023-02-28T20:19:20.558Z,18.40
2023-02-28T20:21:49.536Z,18.30
2023-02-28T20:24:18.321Z,22.00
2023-02-28T20:26:47.634Z,20.80
2023-02-28T20:29:22.622Z,18.50
2023-02-28T20:31:51.120Z,20.60
2023-02-28T20:34:20.140Z,21.20
2023-02-28T20:36:48.590Z,20.10
2023-02-28T20:39:17.242Z,22.90
2023-02-28T20:41:45.965Z,20.10
2023-02-28T20:44:16.282Z,22.90
2023-02-28T20:46:46.340Z,18.90
2023-02-28T20:49:16.029Z,18.40
2023-02-28T20:51:45.523Z,20.40
2023-02-28T20:54:14.199Z,25.10
2023-02-28T20:56:42.374Z,22.50
2023-02-28T20:59:11.832Z,17.90
2023-02-28T21:01:42.890Z,20.40
2023-02-28T21:04:11.184Z,22.90
2023-02-28T21:06:40.687Z,23.80
2023-02-28T21:09:11.491Z,21.10
2023-02-28T21:11:39.988Z,22.70
2023-02-28T21:14:11.452Z,21.50
2023-02-28T21:16:40.749Z,22.10
2023-02-28T21:19:09.897Z,18.70
2023-02-28T21:21:40.785Z,19.60
2023-02-28T21:24:13.729Z,20.00
2023-02-28T21:26:42.483Z,21.10
2023-02-28T21:29:13.305Z,20.10
2023-02-28T21:31:41.976Z,17.70
2023-02-28T21:34:11.294Z,18.90
2023-02-28T21:36:41.781Z,19.20
2023-02-28T21:39:14.978Z,21.80
2023-02-28T21:41:43.701Z,19.20
2023-02-28T21:44:18.792Z,20.70
2023-02-28T21:46:48.598Z,23.70
2023-02-28T21:49:17.735Z,23.60
2023-02-28T21:51:49.391Z,20.40
2023-02-28T21:54:18.953Z,19.10
2023-02-28T21:56:47.636Z,19.50
2023-02-28T21:59:16.022Z,19.30
2023-02-28T22:01:44.925Z,23.00
2023-02-28T22:04:22.142Z,22.20
2023-02-28T22:06:54.520Z,19.90
2023-02-28T22:09:23.177Z,21.80
2023-02-28T22:11:52.837Z,19.60
2023-02-28T22:14:22.260Z,25.40
2023-02-28T22:16:55.134Z,25.00
2023-02-28T22:19:24.898Z,22.10
2023-02-28T22:21:54.191Z,21.50
2023-02-28T22:24:24.710Z,20.60
2023-02-28T22:26:53.501Z,21.70
2023-02-28T22:29:21.870Z,20.70
2023-02-28T22:31:50.823Z,21.30
2023-02-28T22:34:20.481Z,17.00
2023-02-28T22:36:49.954Z,22.40
2023-02-28T22:39:18.286Z,18.00
2023-02-28T22:41:46.482Z,20.80
2023-02-28T22:44:23.138Z,19.60
2023-02-28T22:46:54.370Z,27.00
2023-02-28T22:49:22.764Z,19.90
2023-02-28T22:51:51.297Z,22.70
2023-02-28T22:54:19.929Z,21.10
2023-02-28T22:56:49.944Z,22.50
2023-02-28T22:59:18.838Z,21.80
2023-02-28T23:01:47.889Z,20.20
2023-02-28T23:04:16.281Z,21.00
2023-02-28T23:06:44.897Z,19.30
2023-02-28T23:09:21.736Z,16.70
2023-02-28T23:11:51.370Z,18.60
2023-02-28T23:14:20.151Z,19.40
2023-02-28T23:16:56.940Z,17.70
2023-02-28T23:19:29.907Z,18.20
2023-02-28T23:21:59.601Z,21.00
2023-02-28T23:24:29.832Z,13.80
2023-02-28T23:26:59.064Z,20.50
2023-02-28T23:29:29.345Z,22.30
2023-02-28T23:31:58.468Z,22.10
2023-02-28T23:34:30.627Z,21.00
2023-02-28T23:37:02.064Z,18.50
2023-02-28T23:39:31.488Z,18.30
2023-02-28T23:41:59.816Z,20.60
2023-02-28T23:44:28.189Z,20.40
2023-02-28T23:46:56.351Z,19.60
2023-02-28T23:49:24.717Z,20.70
2023-02-28T23:51:54.544Z,19.80
2023-02-28T23:54:25.206Z,21.10
2023-02-28T23:56:54.230Z,19.10
2023-02-28T23:59:22.821Z,19.40
